This is the latest recevied weather packets stored in our database for station/object OK1TOM-6. If no packets are shown the sender has not sent any weather packets the latest 10 day(s).
| Time | Temp. | Humidity | Pressure | Rain* | Wind** | Luminosity | Snow |
|---|---|---|---|---|---|---|---|
| 1777881944 | 17.22° C | 53% | 1017.8 hPa | 0 mm | - | - | - |
| 1777881341 | 17.22° C | 51% | 1017.7 hPa | 0 mm | - | - | - |
| 1777880738 | 16.67° C | 50% | 1017.8 hPa | 0 mm | - | - | - |
| 1777880134 | 16.11° C | 52% | 1017.8 hPa | 0 mm | - | - | - |
| 1777879531 | 16.11° C | 53% | 1017.5 hPa | 0 mm | - | - | - |
| 1777878927 | 15.56° C | 54% | 1017.5 hPa | 0 mm | - | - | - |
| 1777878324 | 15.56° C | 54% | 1017.6 hPa | 0 mm | - | - | - |
| 1777877720 | 15.56° C | 55% | 1017.4 hPa | 0 mm | - | - | - |
| 1777877117 | 15.56° C | 57% | 1017.6 hPa | 0 mm | - | - | - |
| 1777876573 | 14.44° C | 61% | 1017.6 hPa | 0 mm | - | - | - |
| 1777875970 | 13.89° C | 62% | 1017.3 hPa | 0 mm | - | - | - |
| 1777875366 | 13.33° C | 66% | 1017.3 hPa | 0 mm | - | - | - |
| 1777874763 | 13.33° C | 67% | 1017.3 hPa | 0 mm | - | - | - |
| 1777874160 | 13.33° C | 67% | 1017.3 hPa | 0 mm | - | - | - |
| 1777873556 | 13.33° C | 68% | 1017.3 hPa | 0 mm | - | - | - |
| 1777872953 | 13.33° C | 62% | 1017.3 hPa | 0 mm | - | - | - |
| 1777872349 | 13.33° C | 60% | 1017.2 hPa | 0 mm | - | - | - |
| 1777871746 | 13.33° C | 60% | 1017.2 hPa | 0 mm | - | - | - |
| 1777871142 | 13.33° C | 60% | 1017.2 hPa | 0 mm | - | - | - |
| 1777870539 | 13.89° C | 59% | 1017 hPa | 0 mm | - | - | - |
| 1777869936 | 13.89° C | 60% | 1016.9 hPa | 0 mm | - | - | - |
| 1777869332 | 13.89° C | 59% | 1016.8 hPa | 0 mm | - | - | - |
| 1777868729 | 13.89° C | 59% | 1016.5 hPa | 0 mm | - | - | - |
| 1777868125 | 13.89° C | 59% | 1016.6 hPa | 0 mm | - | - | - |
| 1777867522 | 13.89° C | 60% | 1016.7 hPa | 0 mm | - | - | - |
* Rain latest hour (hover to see other rain measurements)
** Current wind speed in m/s (hover to see current wind gust speed)